Time;durP1;ratioP1;P1;durP2;ratioP2;P2;SDS_P1;SDS_P2;PMS_P1;PMS_P2;Temp;Humidity;BMP_temperature;BMP_pressure;BME280_temperature;BME280_humidity;BME280_pressure;Samples;Min_cycle;Max_cycle;Signal;HPM_P1;HPM_P2
2021/10/01 00:00:31;;;;;;;16.27;7.97;;;;;;;16.19;57.07;102595.94;5129483;28;20192;-61
2021/10/01 00:02:57;;;;;;;13.93;7.83;;;;;;;16.17;57.39;102587.16;5129326;28;20180;-61
2021/10/01 00:05:23;;;;;;;14.97;8.07;;;;;;;16.11;57.28;102597.25;5130440;28;20178;-61
2021/10/01 00:07:49;;;;;;;16.00;8.50;;;;;;;15.99;57.60;102584.63;5129844;28;20565;-61
2021/10/01 00:10:14;;;;;;;15.37;7.63;;;;;;;15.91;56.07;102588.78;5129961;28;20170;-61
2021/10/01 00:12:40;;;;;;;14.03;8.30;;;;;;;15.91;57.06;102594.38;5129956;28;20180;-61
2021/10/01 00:15:06;;;;;;;19.57;7.90;;;;;;;15.80;57.44;102584.53;5130630;28;20188;-61
2021/10/01 00:17:32;;;;;;;16.10;8.17;;;;;;;15.79;57.92;102585.75;5129849;28;20354;-61
2021/10/01 00:19:57;;;;;;;18.73;9.00;;;;;;;15.71;58.14;102590.66;5129723;28;20248;-61
2021/10/01 00:22:24;;;;;;;14.30;8.50;;;;;;;15.62;58.65;102598.00;5129938;28;20246;-61
2021/10/01 00:24:49;;;;;;;15.80;8.50;;;;;;;15.32;59.22;102606.31;5130015;28;20177;-61
2021/10/01 00:27:17;;;;;;;19.00;8.67;;;;;;;15.25;59.95;102603.59;5130396;28;20407;-61
2021/10/01 00:29:43;;;;;;;21.20;9.80;;;;;;;15.13;60.57;102598.56;5129434;28;20178;-61
2021/10/01 00:32:09;;;;;;;24.53;9.30;;;;;;;15.08;61.28;102607.38;5111594;27;20661;-61
2021/10/01 00:34:35;;;;;;;15.73;8.47;;;;;;;14.74;60.36;102542.34;5133648;27;20182;-61
2021/10/01 00:37:01;;;;;;;18.37;8.97;;;;;;;14.45;60.11;102502.78;5115355;27;20268;-61
2021/10/01 00:39:27;;;;;;;14.47;8.93;;;;;;;15.03;60.64;102594.69;5133404;27;20192;-61
2021/10/01 00:41:52;;;;;;;15.10;8.47;;;;;;;14.98;61.19;102589.56;5133369;27;20337;-61
2021/10/01 00:44:18;;;;;;;13.17;9.63;;;;;;;14.99;60.88;102590.31;5133225;27;20173;-61
2021/10/01 00:46:43;;;;;;;14.17;8.87;;;;;;;14.63;61.25;102542.47;5133223;27;20662;-61
2021/10/01 00:49:09;;;;;;;12.20;8.80;;;;;;;14.90;61.26;102588.03;5133074;27;20175;-61
2021/10/01 00:51:35;;;;;;;15.27;8.40;;;;;;;14.90;60.84;102585.25;5133576;27;20612;-61
2021/10/01 00:54:02;;;;;;;12.70;9.33;;;;;;;14.88;61.15;102582.06;5133142;27;20187;-61
2021/10/01 00:56:28;;;;;;;13.33;9.03;;;;;;;14.60;61.04;102548.88;5133685;27;20177;-61
2021/10/01 00:58:53;;;;;;;17.87;9.33;;;;;;;14.84;61.04;102591.69;5132780;27;20632;-61
2021/10/01 01:01:19;;;;;;;18.83;9.53;;;;;;;14.56;61.22;102556.47;5132741;27;20192;-61
2021/10/01 01:03:50;;;;;;;20.03;9.17;;;;;;;14.79;61.20;102592.13;5132427;27;20177;-61
2021/10/01 01:06:46;;;;;;;18.27;9.07;;;;;;;14.77;61.49;102588.97;5133301;27;20210;-61
2021/10/01 01:09:47;;;;;;;14.37;9.70;;;;;;;14.73;61.62;102588.22;5133157;27;20570;-61
2021/10/01 01:12:46;;;;;;;14.63;9.03;;;;;;;14.71;61.62;102579.47;5049586;28;20180;-61
2021/10/01 01:15:31;;;;;;;15.50;9.23;;;;;;;14.69;61.58;102585.47;5132856;27;20180;-61
2021/10/01 01:18:10;;;;;;;17.13;9.53;;;;;;;14.67;61.87;102579.50;5132906;27;20254;-61
2021/10/01 01:20:55;;;;;;;15.00;9.40;;;;;;;14.64;62.07;102576.72;5132396;27;20202;-61
2021/10/01 01:23:38;;;;;;;13.70;8.53;;;;;;;14.64;62.01;102573.94;5133151;27;20156;-61
2021/10/01 01:26:10;;;;;;;15.63;9.50;;;;;;;14.61;62.08;102574.78;5132465;27;20244;-61
2021/10/01 01:29:12;;;;;;;15.10;8.80;;;;;;;14.59;62.51;102579.97;5133064;27;20328;-61
2021/10/01 01:31:44;;;;;;;12.90;9.23;;;;;;;14.54;62.51;102583.19;5112176;28;20227;-61
2021/10/01 01:34:12;;;;;;;13.63;9.10;;;;;;;14.37;62.65;102573.00;5124098;27;20178;-61
2021/10/01 01:36:38;;;;;;;12.80;8.20;;;;;;;14.31;62.50;102581.03;5132936;27;20183;-61
2021/10/01 01:39:05;;;;;;;18.87;9.13;;;;;;;14.28;62.57;102579.06;5132363;27;20184;-61
2021/10/01 01:41:33;;;;;;;16.13;9.30;;;;;;;14.23;62.77;102581.47;5132049;27;20206;-61
2021/10/01 01:43:59;;;;;;;17.47;9.20;;;;;;;14.06;62.74;102576.81;5130907;27;20187;-61
2021/10/01 01:46:25;;;;;;;29.00;10.93;;;;;;;13.94;62.85;102580.09;5132609;27;20236;-61
2021/10/01 01:48:51;;;;;;;26.50;10.30;;;;;;;13.88;63.41;102588.06;5131994;27;20647;-61
2021/10/01 01:51:17;;;;;;;24.53;10.30;;;;;;;13.77;64.17;102592.13;5131388;27;20233;-61
2021/10/01 01:53:45;;;;;;;20.43;10.87;;;;;;;13.74;64.11;102590.16;5132251;27;20211;-61
2021/10/01 01:56:11;;;;;;;18.07;9.73;;;;;;;13.58;64.61;102564.78;5132217;27;20184;-61
2021/10/01 01:58:39;;;;;;;16.63;9.73;;;;;;;13.70;64.64;102586.59;5132319;27;20224;-61
2021/10/01 02:01:06;;;;;;;17.07;10.73;;;;;;;13.65;65.23;102589.81;5130978;27;20198;-61
2021/10/01 02:03:33;;;;;;;18.07;10.67;;;;;;;13.09;65.12;102503.75;5132201;27;20178;-61
2021/10/01 02:06:00;;;;;;;18.00;10.60;;;;;;;13.23;65.16;102542.66;5131395;27;20262;-61
2021/10/01 02:08:28;;;;;;;18.73;10.93;;;;;;;13.60;65.41;102590.22;5132559;27;20672;-61
2021/10/01 02:10:54;;;;;;;22.50;11.77;;;;;;;13.62;65.30;102594.19;5130635;27;20183;-61
2021/10/01 02:13:22;;;;;;;24.77;10.93;;;;;;;13.63;64.85;102595.78;5132273;27;20179;-61
2021/10/01 02:15:54;;;;;;;16.53;10.93;;;;;;;13.61;64.82;102591.81;5131052;27;20169;-61
2021/10/01 02:18:24;;;;;;;18.73;9.87;;;;;;;13.18;64.12;102516.06;5131543;27;20305;-61
2021/10/01 02:20:52;;;;;;;21.83;10.97;;;;;;;13.61;64.48;102584.25;5130790;27;20190;-61
2021/10/01 02:23:17;;;;;;;22.00;10.97;;;;;;;13.12;64.66;102511.31;5131653;27;20638;-61
2021/10/01 02:28:40;;;;;;;22.60;10.47;;;;;;;13.64;64.31;102585.44;5131643;27;20186;-61
2021/10/01 02:31:13;;;;;;;17.63;9.90;;;;;;;13.66;64.61;102575.47;5131202;27;20170;-61
2021/10/01 02:33:46;;;;;;;18.27;10.17;;;;;;;13.64;64.08;102577.88;5130874;27;20182;-61
2021/10/01 02:36:11;;;;;;;19.13;10.53;;;;;;;13.65;63.92;102582.25;5131636;27;20559;-61
2021/10/01 02:38:37;;;;;;;17.03;9.97;;;;;;;13.67;63.63;102584.59;5131259;27;20181;-61
2021/10/01 02:41:04;;;;;;;13.73;10.17;;;;;;;13.63;63.94;102586.66;5130415;27;20788;-61
2021/10/01 02:43:30;;;;;;;22.37;10.57;;;;;;;13.62;63.96;102585.84;5131488;27;20177;-61
2021/10/01 02:45:55;;;;;;;23.27;10.97;;;;;;;13.47;64.07;102592.69;5130498;27;20654;-61
2021/10/01 02:48:21;;;;;;;20.57;11.00;;;;;;;13.33;63.91;102580.81;5131435;27;20230;-61
2021/10/01 02:50:56;;;;;;;30.37;11.73;;;;;;;13.36;63.99;102593.91;5129849;27;20597;-61
2021/10/01 02:53:51;;;;;;;21.53;10.63;;;;;;;13.37;63.72;102593.50;5131485;27;20690;-61
2021/10/01 02:56:27;;;;;;;23.90;10.80;;;;;;;13.31;63.71;102594.34;5125829;27;20193;-61
2021/10/01 02:58:59;;;;;;;19.57;10.37;;;;;;;13.36;63.65;102591.94;5131088;27;20248;-61
2021/10/01 03:01:27;;;;;;;15.33;10.10;;;;;;;13.36;63.67;102591.13;5112198;27;20288;-61
2021/10/01 03:03:58;;;;;;;19.63;10.30;;;;;;;13.03;63.86;102547.13;5130686;27;20663;-61
2021/10/01 03:06:26;;;;;;;20.13;10.33;;;;;;;13.25;64.16;102571.69;5131615;27;20218;-61
2021/10/01 03:08:52;;;;;;;18.10;10.27;;;;;;;13.38;64.26;102592.31;5111660;27;20605;-61
2021/10/01 03:11:20;;;;;;;18.90;10.50;;;;;;;13.35;64.00;102595.91;5112079;27;20171;-61
2021/10/01 03:13:48;;;;;;;19.13;10.90;;;;;;;13.42;64.24;102589.53;5130285;27;20181;-61
2021/10/01 03:16:19;;;;;;;24.83;10.53;;;;;;;13.42;64.24;102581.19;5130930;27;20180;-61
2021/10/01 03:18:47;;;;;;;24.10;11.10;;;;;;;13.35;64.06;102573.63;5111764;27;20221;-61
2021/10/01 03:21:13;;;;;;;17.63;10.63;;;;;;;13.46;64.32;102591.09;5130364;27;20196;-61
2021/10/01 03:23:42;;;;;;;16.17;10.27;;;;;;;13.14;64.26;102573.72;5130572;27;20200;-61
2021/10/01 03:26:08;;;;;;;13.67;10.13;;;;;;;13.19;64.43;102595.59;5130164;27;20297;-61
2021/10/01 03:28:37;;;;;;;20.10;10.13;;;;;;;13.25;64.28;102584.81;5131121;27;20264;-61
2021/10/01 03:31:03;;;;;;;13.47;9.53;;;;;;;13.25;64.36;102580.03;5129635;27;20660;-61
2021/10/01 03:33:28;;;;;;;15.63;10.83;;;;;;;13.24;64.31;102580.44;5112372;28;20174;-61
2021/10/01 03:35:54;;;;;;;18.30;10.83;;;;;;;13.26;64.08;102586.41;5129917;28;20535;-61
2021/10/01 03:38:20;;;;;;;22.83;12.03;;;;;;;13.21;64.08;102582.03;5130904;28;20173;-61
2021/10/01 03:40:46;;;;;;;24.73;11.80;;;;;;;13.19;64.53;102589.22;5129313;28;20705;-61
2021/10/01 03:43:14;;;;;;;20.53;12.00;;;;;;;13.16;64.68;102590.03;5112384;28;20233;-61
2021/10/01 03:45:40;;;;;;;15.50;10.47;;;;;;;12.96;64.76;102555.50;5129659;28;20666;-61
2021/10/01 03:48:06;;;;;;;15.93;10.13;;;;;;;12.59;64.95;102494.75;5112364;28;20588;-61
2021/10/01 03:50:33;;;;;;;15.23;10.57;;;;;;;13.20;64.84;102588.81;5129345;28;20212;-61
2021/10/01 03:53:00;;;;;;;16.83;10.23;;;;;;;13.25;65.05;102590.38;5130349;28;20178;-61
2021/10/01 03:55:25;;;;;;;15.37;10.10;;;;;;;13.29;65.22;102594.75;5130293;28;20175;-61
2021/10/01 03:57:51;;;;;;;21.70;9.97;;;;;;;13.28;65.08;102586.81;5129243;28;20183;-61
2021/10/01 04:00:18;;;;;;;18.67;10.60;;;;;;;13.42;64.77;102600.69;5125919;27;20205;-61
2021/10/01 04:02:44;;;;;;;23.40;10.93;;;;;;;13.43;64.66;102607.81;5123025;28;20234;-61
2021/10/01 04:05:10;;;;;;;17.73;10.40;;;;;;;13.49;65.02;102600.63;5128351;28;20187;-61
2021/10/01 04:07:36;;;;;;;15.77;10.77;;;;;;;13.56;64.44;102609.75;5130522;27;20247;-61
2021/10/01 04:10:02;;;;;;;15.40;10.07;;;;;;;13.45;64.03;102611.00;5132523;27;20185;-60
2021/10/01 04:12:27;;;;;;;20.07;10.63;;;;;;;13.42;63.74;102620.94;5114076;27;20175;-60
2021/10/01 04:14:53;;;;;;;16.37;10.37;;;;;;;13.31;64.04;102585.97;5133667;27;20176;-60
2021/10/01 04:17:19;;;;;;;16.83;10.40;;;;;;;13.63;64.16;102622.88;5133100;27;20308;-61
2021/10/01 04:19:45;;;;;;;16.13;10.43;;;;;;;13.53;63.82;102588.25;5132513;27;20570;-60
2021/10/01 04:22:10;;;;;;;13.70;9.90;;;;;;;13.77;63.66;102619.97;5132767;27;20255;-61
2021/10/01 04:24:36;;;;;;;15.13;9.80;;;;;;;13.83;63.43;102619.16;5133812;27;20649;-61
2021/10/01 04:27:01;;;;;;;16.70;10.37;;;;;;;13.87;63.33;102621.91;5132939;27;20180;-61
2021/10/01 04:29:27;;;;;;;15.57;10.17;;;;;;;13.94;63.44;102625.47;5132420;27;20204;-61
2021/10/01 04:31:53;;;;;;;17.93;9.90;;;;;;;13.98;63.20;102634.59;5132541;27;20553;-61
2021/10/01 04:34:19;;;;;;;16.37;10.40;;;;;;;13.96;63.04;102636.22;5132694;27;20183;-61
2021/10/01 04:36:44;;;;;;;16.43;9.87;;;;;;;13.80;61.95;102638.69;5132741;27;20208;-61
2021/10/01 04:39:10;;;;;;;12.90;9.57;;;;;;;13.70;62.36;102645.09;5132418;27;20317;-61
2021/10/01 04:41:36;;;;;;;16.90;10.67;;;;;;;13.64;62.46;102646.72;5132005;27;20213;-61
2021/10/01 04:44:02;;;;;;;17.83;10.43;;;;;;;13.57;62.62;102653.13;5123019;27;20213;-63
2021/10/01 04:46:27;;;;;;;17.77;10.20;;;;;;;13.62;62.58;102649.13;5097527;27;20187;-61
2021/10/01 04:48:55;;;;;;;15.47;9.47;;;;;;;13.66;62.63;102650.69;5124054;27;20184;-61
2021/10/01 04:51:20;;;;;;;16.23;10.83;;;;;;;13.64;62.96;102649.53;5110311;27;20283;-61
2021/10/01 04:53:46;;;;;;;14.10;10.30;;;;;;;13.58;63.03;102659.50;5117014;27;20727;-60
2021/10/01 04:56:11;;;;;;;17.40;10.80;;;;;;;13.53;63.48;102657.13;5126318;27;20307;-61
2021/10/01 04:58:37;;;;;;;20.10;11.57;;;;;;;13.67;63.47;102662.63;5112981;27;20192;-61
2021/10/01 05:01:03;;;;;;;16.37;10.80;;;;;;;13.64;63.04;102664.25;5123323;27;20229;-61
2021/10/01 05:03:29;;;;;;;15.77;10.43;;;;;;;13.69;62.86;102669.38;5129636;27;20232;-61
2021/10/01 05:05:55;;;;;;;18.17;11.17;;;;;;;13.70;63.00;102667.41;5125606;27;20181;-61
2021/10/01 05:08:20;;;;;;;17.50;10.90;;;;;;;13.70;62.82;102657.06;5129322;27;20181;-61
2021/10/01 05:10:45;;;;;;;16.40;10.50;;;;;;;13.73;63.00;102663.81;5127955;27;20182;-61
2021/10/01 05:13:11;;;;;;;15.53;10.73;;;;;;;13.76;63.26;102674.13;5129182;27;20187;-61
2021/10/01 05:15:40;;;;;;;14.10;10.57;;;;;;;13.65;63.11;102671.41;5117805;27;20197;-61
2021/10/01 05:18:05;;;;;;;13.40;10.40;;;;;;;13.84;62.96;102675.69;5129438;27;20225;-60
2021/10/01 05:20:31;;;;;;;13.27;10.87;;;;;;;13.84;63.19;102675.69;5122344;27;20174;-61
2021/10/01 05:22:56;;;;;;;15.67;10.97;;;;;;;13.86;63.21;102682.47;5128201;27;20214;-61
2021/10/01 05:25:22;;;;;;;16.80;10.93;;;;;;;13.97;62.79;102685.97;5129087;27;20181;-61
2021/10/01 05:27:47;;;;;;;14.23;10.77;;;;;;;13.95;62.56;102688.41;5112301;27;20191;-61
2021/10/01 05:30:13;;;;;;;16.40;11.53;;;;;;;13.93;62.83;102688.00;5124457;27;21176;-60
2021/10/01 05:32:38;;;;;;;18.57;11.30;;;;;;;13.97;62.89;102693.53;5127480;27;20188;-60
2021/10/01 05:35:05;;;;;;;17.77;11.27;;;;;;;13.97;62.56;102691.56;5129243;27;20623;-61
2021/10/01 05:37:30;;;;;;;15.83;11.17;;;;;;;14.13;62.29;102702.22;5129046;27;20183;-61
2021/10/01 05:39:56;;;;;;;18.23;11.90;;;;;;;13.93;62.33;102653.75;5129677;27;20725;-61
2021/10/01 05:42:21;;;;;;;17.50;11.87;;;;;;;13.96;62.23;102655.72;5128525;27;20203;-61
2021/10/01 05:44:47;;;;;;;19.23;11.70;;;;;;;14.33;62.17;102692.97;5128072;27;20183;-61
2021/10/01 05:47:12;;;;;;;15.27;11.23;;;;;;;14.45;61.75;102698.06;5129041;27;20179;-61
2021/10/01 05:49:40;;;;;;;17.83;11.43;;;;;;;14.37;61.66;102702.13;5126173;27;20179;-61
2021/10/01 05:52:18;;;;;;;18.00;11.57;;;;;;;14.41;61.90;102702.91;5129541;27;20199;-61
2021/10/01 05:54:45;;;;;;;18.00;11.00;;;;;;;14.58;61.88;102703.94;5128702;27;20698;-61
2021/10/01 05:57:12;;;;;;;15.97;11.47;;;;;;;14.50;61.83;102692.03;5129335;27;20192;-61
2021/10/01 05:59:39;;;;;;;16.20;11.23;;;;;;;14.79;61.27;102706.56;5111632;27;20680;-60
2021/10/01 06:02:05;;;;;;;13.00;10.67;;;;;;;14.41;61.60;102661.06;5104007;27;20259;-61
2021/10/01 06:04:30;;;;;;;14.87;11.80;;;;;;;14.33;61.09;102650.31;5129721;27;20205;-61
2021/10/01 06:06:56;;;;;;;16.77;12.13;;;;;;;14.24;61.53;102644.44;5129500;27;20682;-60
2021/10/01 06:09:23;;;;;;;16.23;11.37;;;;;;;14.78;61.32;102733.72;5129595;27;20766;-61
2021/10/01 06:11:49;;;;;;;15.23;10.97;;;;;;;14.74;60.87;102727.34;5129199;27;20230;-61
2021/10/01 06:14:21;;;;;;;16.07;11.40;;;;;;;14.78;61.42;102730.91;5130458;27;20750;-61
2021/10/01 06:16:47;;;;;;;16.07;11.20;;;;;;;14.66;61.01;102697.13;5127987;27;20187;-61
2021/10/01 06:19:12;;;;;;;14.60;11.20;;;;;;;15.07;61.23;102726.66;5129818;27;20507;-61
2021/10/01 06:21:37;;;;;;;15.53;11.33;;;;;;;15.06;60.76;102729.91;5124481;27;20686;-61
2021/10/01 06:24:03;;;;;;;17.97;12.10;;;;;;;15.08;60.75;102721.88;5128802;27;20207;-61
2021/10/01 06:26:29;;;;;;;16.13;10.40;;;;;;;15.33;60.65;102734.44;5127239;27;20184;-61
2021/10/01 06:28:54;;;;;;;17.77;11.80;;;;;;;15.44;60.52;102734.31;5125938;27;20631;-61
2021/10/01 06:31:20;;;;;;;17.57;10.93;;;;;;;15.50;59.86;102741.03;5109189;27;20173;-61
2021/10/01 06:33:46;;;;;;;19.73;10.97;;;;;;;15.45;60.26;102744.28;5127576;27;20461;-61
2021/10/01 06:36:14;;;;;;;13.27;11.00;;;;;;;15.55;59.71;102735.81;5128080;27;20735;-61
2021/10/01 06:38:40;;;;;;;18.57;10.93;;;;;;;15.51;59.49;102723.88;5125643;27;20192;-61
2021/10/01 06:41:05;;;;;;;15.37;10.83;;;;;;;15.07;59.46;102653.28;5126578;27;20305;-61
2021/10/01 06:43:31;;;;;;;18.97;11.03;;;;;;;15.70;59.61;102737.22;5117115;27;20238;-60
2021/10/01 06:45:58;;;;;;;14.37;10.47;;;;;;;15.76;59.19;102751.53;5118896;27;20177;-60
2021/10/01 06:48:46;;;;;;;19.20;11.30;;;;;;;15.52;60.06;102741.44;5115453;27;20192;-61
2021/10/01 07:45:55;;;;;;;12.53;9.03;;;;;;;17.03;57.40;102771.75;5131316;27;20187;-61
2021/10/01 08:18:39;;;;;;;14.60;10.77;;;;;;;17.55;54.39;102757.25;5127124;27;20244;-61
2021/10/01 08:21:04;;;;;;;17.83;10.80;;;;;;;17.68;53.88;102754.16;5124907;27;20408;-61
2021/10/01 08:23:30;;;;;;;19.27;10.47;;;;;;;17.65;53.99;102757.03;5132956;27;20662;-61
2021/10/01 08:25:55;;;;;;;15.20;10.40;;;;;;;17.83;53.74;102756.69;5129466;27;20177;-61
2021/10/01 08:28:21;;;;;;;15.57;9.93;;;;;;;17.87;52.98;102755.44;5129957;27;20192;-61
2021/10/01 08:30:47;;;;;;;22.93;10.17;;;;;;;17.85;53.08;102751.47;5107856;27;20181;-61
2021/10/01 08:33:12;;;;;;;14.10;10.93;;;;;;;17.98;52.75;102760.78;5130913;27;20181;-61
2021/10/01 08:35:38;;;;;;;17.43;10.87;;;;;;;18.11;52.56;102751.28;5124648;27;20250;-61
2021/10/01 08:38:03;;;;;;;14.87;10.00;;;;;;;18.12;51.51;102757.72;5124301;27;20181;-61
2021/10/01 08:40:30;;;;;;;13.43;9.80;;;;;;;18.14;51.59;102753.25;5129831;27;20182;-61
2021/10/01 08:42:56;;;;;;;13.63;9.30;;;;;;;18.30;50.92;102750.47;5118535;27;20702;-60
2021/10/01 08:45:24;;;;;;;15.20;9.40;;;;;;;18.26;50.49;102751.78;5125316;27;20191;-60
2021/10/01 08:47:50;;;;;;;15.10;9.30;;;;;;;18.14;50.65;102754.00;5125224;27;20220;-61
2021/10/01 08:50:20;;;;;;;12.83;9.13;;;;;;;18.46;50.33;102753.34;5128134;27;20184;-60
2021/10/01 08:52:47;;;;;;;15.03;8.23;;;;;;;18.55;49.25;102747.94;5122656;27;20245;-61
2021/10/01 08:55:14;;;;;;;12.33;8.67;;;;;;;18.80;48.38;102747.34;5124691;27;20188;-61
2021/10/01 08:57:41;;;;;;;12.43;8.33;;;;;;;18.94;48.13;102756.19;5124451;27;20193;-61
2021/10/01 09:00:17;;;;;;;10.57;7.70;;;;;;;18.95;47.53;102751.38;5114583;27;20195;-62
2021/10/01 09:02:42;;;;;;;11.00;7.83;;;;;;;18.73;47.75;102755.94;5125231;27;20240;-62
2021/10/01 09:05:08;;;;;;;13.33;7.57;;;;;;;19.06;47.31;102749.09;5105808;27;20277;-60
2021/10/01 09:07:34;;;;;;;12.33;7.87;;;;;;;19.29;46.82;102743.31;5126646;27;20450;-61
2021/10/01 09:10:00;;;;;;;11.60;7.37;;;;;;;19.51;46.79;102749.94;5129509;27;20765;-63
2021/10/01 09:12:25;;;;;;;11.90;7.83;;;;;;;18.82;45.78;102669.81;5127302;27;20174;-60
2021/10/01 09:14:54;;;;;;;14.63;6.93;;;;;;;19.18;45.24;102743.53;5127777;27;20181;-63
2021/10/01 09:17:22;;;;;;;14.43;7.63;;;;;;;19.26;45.67;102741.38;5129110;27;20747;-62
2021/10/01 09:19:48;;;;;;;10.63;6.40;;;;;;;19.07;46.25;102745.03;5128622;27;20181;-61
2021/10/01 09:22:36;;;;;;;11.47;6.30;;;;;;;18.99;45.66;102744.44;5128608;27;20454;-60
2021/10/01 09:25:17;;;;;;;10.97;7.87;;;;;;;19.40;45.87;102743.81;5109254;27;20196;-63
2021/10/01 09:27:44;;;;;;;11.47;6.77;;;;;;;19.10;44.96;102694.38;5128805;27;20189;-62
2021/10/01 09:30:13;;;;;;;9.37;6.10;;;;;;;19.71;43.85;102740.09;5128919;27;20185;-61
2021/10/01 09:32:40;;;;;;;8.50;5.97;;;;;;;19.80;43.32;102731.03;5128615;27;20213;-62
2021/10/01 09:35:13;;;;;;;9.10;6.40;;;;;;;19.82;43.20;102739.81;5130522;27;20189;-60
2021/10/01 09:37:39;;;;;;;9.33;5.87;;;;;;;19.66;43.14;102706.13;5131933;27;20185;-64
2021/10/01 09:40:05;;;;;;;12.73;5.80;;;;;;;19.53;42.50;102688.41;5110820;27;20182;-63
2021/10/01 09:42:46;;;;;;;10.07;6.17;;;;;;;19.84;42.60;102676.22;5130527;27;20233;-60
2021/10/01 09:45:14;;;;;;;12.40;5.73;;;;;;;20.21;41.96;102677.56;5125212;27;20174;-60
2021/10/01 09:47:45;;;;;;;10.67;5.47;;;;;;;20.72;41.05;102727.00;5109336;27;20188;-59
2021/10/01 09:50:14;;;;;;;9.07;5.47;;;;;;;20.92;40.94;102722.72;5127594;27;20177;-59
2021/10/01 09:52:46;;;;;;;9.43;5.13;;;;;;;20.92;40.29;102725.53;5108967;27;20158;-59
2021/10/01 09:55:39;;;;;;;9.63;5.30;;;;;;;20.85;39.71;102720.09;5127278;27;20273;-60
2021/10/01 09:58:10;;;;;;;13.30;5.43;;;;;;;21.00;40.65;102714.81;5112269;27;20565;-59
2021/10/01 10:00:46;;;;;;;6.80;4.87;;;;;;;21.39;38.67;102726.28;5122995;27;20217;-59
2021/10/01 10:03:23;;;;;;;8.40;4.90;;;;;;;21.58;38.41;102716.75;5126685;27;20230;-59
2021/10/01 10:06:00;;;;;;;7.57;4.63;;;;;;;21.85;38.58;102714.16;5126872;27;20213;-59
2021/10/01 10:08:25;;;;;;;8.97;4.90;;;;;;;22.07;37.62;102714.13;5109939;27;20221;-60
2021/10/01 10:10:54;;;;;;;8.20;4.83;;;;;;;21.67;37.05;102718.84;5128546;27;20205;-59
2021/10/01 10:13:38;;;;;;;8.13;5.00;;;;;;;21.50;36.35;102661.81;5121460;27;20232;-59
2021/10/01 10:16:39;;;;;;;9.63;4.90;;;;;;;21.97;36.39;102706.84;5125099;27;20590;-59
2021/10/01 10:19:11;;;;;;;7.47;4.87;;;;;;;21.87;36.49;102705.22;5025575;28;20236;-59
2021/10/01 10:21:37;;;;;;;9.87;4.73;;;;;;;21.94;37.19;102708.56;5109115;27;20217;-59
2021/10/01 10:24:04;;;;;;;7.63;4.70;;;;;;;22.10;36.19;102699.88;5127535;27;20178;-59
2021/10/01 10:26:31;;;;;;;7.13;4.83;;;;;;;21.98;36.76;102655.56;5128425;27;20170;-59
2021/10/01 10:29:04;;;;;;;12.17;5.40;;;;;;;22.38;36.62;102701.59;5127457;27;20178;-60
2021/10/01 10:31:32;;;;;;;7.37;4.67;;;;;;;22.43;36.38;102694.53;5128187;27;20233;-59
2021/10/01 10:33:58;;;;;;;12.17;5.17;;;;;;;22.44;36.16;102696.09;5126795;27;20196;-61
2021/10/01 10:36:29;;;;;;;11.17;6.40;;;;;;;22.43;36.14;102683.22;5127916;27;20295;-61
2021/10/01 10:38:57;;;;;;;7.30;5.70;;;;;;;22.45;36.61;102687.19;5126320;27;20177;-61
2021/10/01 10:41:25;;;;;;;8.80;5.00;;;;;;;22.56;35.16;102681.13;5127884;27;20208;-61
2021/10/01 10:43:51;;;;;;;6.70;4.63;;;;;;;22.44;35.65;102671.50;5127483;27;20610;-61
2021/10/01 10:46:35;;;;;;;8.03;4.37;;;;;;;22.51;35.88;102676.84;5109712;27;20272;-61
2021/10/01 10:49:22;;;;;;;8.40;3.83;;;;;;;22.46;34.10;102666.16;5125846;27;20197;-61
2021/10/01 10:52:15;;;;;;;8.10;4.07;;;;;;;22.56;34.09;102664.16;5123421;27;20238;-61
2021/10/01 10:54:51;;;;;;;7.10;4.00;;;;;;;22.39;34.01;102660.78;5125642;27;20174;-61
2021/10/01 10:57:21;;;;;;;8.13;3.77;;;;;;;22.75;33.50;102660.09;5128415;27;20177;-61
2021/10/01 10:59:51;;;;;;;7.73;4.17;;;;;;;22.99;32.66;102641.31;5118514;27;20272;-61
2021/10/01 11:02:27;;;;;;;8.07;4.13;;;;;;;22.97;32.93;102655.13;5128316;27;20212;-61
2021/10/01 11:05:12;;;;;;;8.43;3.90;;;;;;;;;;5128569;27;20161;-61
2021/10/01 11:07:57;;;;;;;9.07;4.00;;;;;;;23.38;32.64;102651.72;5128250;27;20177;-61
2021/10/01 11:10:46;;;;;;;9.10;4.00;;;;;;;23.23;31.48;102637.41;5128774;27;20173;-61
2021/10/01 11:13:18;;;;;;;8.07;4.30;;;;;;;23.37;31.99;102644.47;5109323;27;20177;-62
2021/10/01 11:16:09;;;;;;;7.00;3.97;;;;;;;23.48;32.42;102639.91;5108787;27;20192;-61
2021/10/01 11:18:47;;;;;;;10.30;3.97;;;;;;;23.64;31.39;102633.13;5125171;27;20225;-61
2021/10/01 11:21:34;;;;;;;6.23;4.00;;;;;;;23.64;30.66;102622.56;5128843;27;20297;-62
2021/10/01 11:24:01;;;;;;;7.53;3.50;;;;;;;23.31;31.57;102629.38;5125639;27;20698;-61
2021/10/01 11:26:29;;;;;;;9.40;4.37;;;;;;;23.01;31.94;102619.78;5121726;27;20211;-61
2021/10/01 11:28:55;;;;;;;5.23;3.97;;;;;;;23.24;31.33;102624.81;5128575;27;20181;-61
2021/10/01 11:31:21;;;;;;;6.87;4.13;;;;;;;23.23;30.97;102617.59;5127812;27;20503;-61
2021/10/01 11:33:48;;;;;;;7.80;3.83;;;;;;;23.26;31.00;102619.50;5107714;27;20192;-61
2021/10/01 11:36:14;;;;;;;10.10;4.33;;;;;;;23.04;32.12;102613.19;5115605;27;20689;-61
2021/10/01 11:38:39;;;;;;;10.33;4.43;;;;;;;23.18;31.89;102606.16;5127361;28;20201;-61
2021/10/01 11:41:22;;;;;;;8.03;4.67;;;;;;;22.82;31.91;102549.56;5127403;28;20254;-61
2021/10/01 11:44:00;;;;;;;10.43;4.27;;;;;;;23.14;31.84;102599.81;5124839;28;20169;-61
2021/10/01 11:46:35;;;;;;;6.33;4.27;;;;;;;23.15;31.32;102605.03;5125828;28;20180;-61
2021/10/01 11:49:03;;;;;;;8.17;4.10;;;;;;;23.16;31.14;102600.94;5126137;28;20260;-61
2021/10/01 11:51:30;;;;;;;8.63;4.10;;;;;;;22.82;31.11;102589.91;5127916;28;20169;-61
2021/10/01 11:54:13;;;;;;;5.40;4.00;;;;;;;22.34;32.08;102542.75;5124708;28;20173;-62
2021/10/01 11:56:40;;;;;;;8.13;4.20;;;;;;;22.20;31.94;102582.88;5126927;28;20211;-61
2021/10/01 11:59:05;;;;;;;10.33;4.47;;;;;;;22.43;33.18;102587.97;5127901;28;20200;-64
2021/10/01 12:01:32;;;;;;;6.73;4.27;;;;;;;22.60;32.89;102585.66;5123479;28;20190;-61
2021/10/01 12:03:59;;;;;;;7.40;3.97;;;;;;;22.84;30.98;102578.16;5126589;28;20177;-62
2021/10/01 12:06:35;;;;;;;9.03;4.30;;;;;;;22.78;31.59;102568.72;5126782;28;20174;-61
2021/10/01 12:09:04;;;;;;;12.07;4.40;;;;;;;22.69;31.20;102569.50;5125714;28;20169;-63
2021/10/01 12:11:32;;;;;;;8.13;4.27;;;;;;;22.66;31.85;102522.38;5128545;28;20174;-64
2021/10/01 12:14:11;;;;;;;6.13;4.03;;;;;;;22.87;31.16;102563.84;5123983;28;20229;-63
2021/10/01 12:16:39;;;;;;;9.03;4.27;;;;;;;23.05;31.97;102563.84;5128370;28;20213;-63
2021/10/01 12:19:05;;;;;;;7.07;4.17;;;;;;;23.36;31.38;102561.63;5110089;27;20286;-63
2021/10/01 12:21:34;;;;;;;9.33;4.10;;;;;;;23.47;31.25;102550.59;5123551;28;20202;-63
2021/10/01 12:23:59;;;;;;;6.73;3.70;;;;;;;23.84;30.73;102554.88;5119639;28;20634;-63
2021/10/01 12:26:29;;;;;;;9.70;4.10;;;;;;;24.18;30.16;102556.47;5108671;28;20193;-63
2021/10/01 12:28:57;;;;;;;8.33;4.10;;;;;;;24.46;30.71;102549.38;5119178;27;20182;-63
2021/10/01 12:31:29;;;;;;;12.30;4.00;;;;;;;24.69;30.20;102545.75;5116087;27;20178;-63
2021/10/01 12:33:58;;;;;;;7.10;4.10;;;;;;;24.80;29.18;102515.56;5105133;27;20260;-63
2021/10/01 12:36:25;;;;;;;8.70;4.10;;;;;;;25.12;29.70;102540.16;5102988;28;20647;-63
2021/10/01 12:38:55;;;;;;;8.40;4.67;;;;;;;24.96;28.89;102534.97;5119638;27;20670;-64
2021/10/01 12:41:22;;;;;;;7.60;4.70;;;;;;;24.71;28.38;102481.63;5120344;27;20197;-63
2021/10/01 12:43:55;;;;;;;7.53;4.37;;;;;;;24.89;29.13;102537.41;5126044;27;20182;-63
2021/10/01 12:46:54;;;;;;;6.67;4.37;;;;;;;24.77;29.03;102530.72;5118635;27;20175;-64
2021/10/01 12:49:21;;;;;;;10.20;4.77;;;;;;;24.63;29.95;102536.34;5062745;27;20185;-62
2021/10/01 12:52:10;;;;;;;7.37;4.20;;;;;;;24.45;29.73;102540.06;5121943;27;20182;-62
2021/10/01 12:54:42;;;;;;;8.47;5.07;;;;;;;24.16;29.93;102531.44;5093938;28;20196;-62